sensor_id;sensor_type;location;lat;lon;timestamp;pressure;altitude;pressure_sealevel;temperature;humidity
3102;BME280;1561;42.666;23.392;2023-08-30T00:02:23;94286.69;;;20.96;100.00
3102;BME280;1561;42.666;23.392;2023-08-30T00:04:49;94286.00;;;21.07;100.00
3102;BME280;1561;42.666;23.392;2023-08-30T00:07:17;94282.31;;;21.21;100.00
3102;BME280;1561;42.666;23.392;2023-08-30T00:09:45;94288.09;;;21.23;100.00
3102;BME280;1561;42.666;23.392;2023-08-30T00:12:13;94297.41;;;21.06;100.00
3102;BME280;1561;42.666;23.392;2023-08-30T00:14:40;94282.47;;;20.88;100.00
3102;BME280;1561;42.666;23.392;2023-08-30T00:17:07;94287.38;;;20.72;100.00
3102;BME280;1561;42.666;23.392;2023-08-30T00:19:40;94286.34;;;20.73;100.00
3102;BME280;1561;42.666;23.392;2023-08-30T00:22:07;94279.19;;;20.68;100.00
3102;BME280;1561;42.666;23.392;2023-08-30T00:24:36;94282.22;;;20.59;100.00
3102;BME280;1561;42.666;23.392;2023-08-30T00:27:03;94298.44;;;20.54;100.00
3102;BME280;1561;42.666;23.392;2023-08-30T00:29:31;94297.34;;;20.75;100.00
3102;BME280;1561;42.666;23.392;2023-08-30T00:32:00;94292.34;;;20.73;100.00
3102;BME280;1561;42.666;23.392;2023-08-30T00:34:27;94283.00;;;20.66;100.00
3102;BME280;1561;42.666;23.392;2023-08-30T00:36:54;94273.06;;;20.56;100.00
3102;BME280;1561;42.666;23.392;2023-08-30T00:39:21;94165.44;;;19.77;100.00
3102;BME280;1561;42.666;23.392;2023-08-30T00:41:51;94223.44;;;20.40;100.00
3102;BME280;1561;42.666;23.392;2023-08-30T00:44:17;94279.41;;;21.04;100.00
3102;BME280;1561;42.666;23.392;2023-08-30T00:46:44;94280.50;;;21.21;100.00
3102;BME280;1561;42.666;23.392;2023-08-30T00:49:14;94280.03;;;21.31;100.00
3102;BME280;1561;42.666;23.392;2023-08-30T00:51:41;94266.34;;;21.17;100.00
3102;BME280;1561;42.666;23.392;2023-08-30T00:54:08;94289.16;;;21.09;100.00
3102;BME280;1561;42.666;23.392;2023-08-30T00:56:35;94286.16;;;20.74;100.00
3102;BME280;1561;42.666;23.392;2023-08-30T00:59:06;94300.38;;;20.65;100.00
3102;BME280;1561;42.666;23.392;2023-08-30T01:01:33;94301.63;;;20.56;100.00
3102;BME280;1561;42.666;23.392;2023-08-30T01:04:00;94314.25;;;20.40;100.00
3102;BME280;1561;42.666;23.392;2023-08-30T01:06:27;94325.63;;;20.39;100.00
3102;BME280;1561;42.666;23.392;2023-08-30T01:08:54;94318.88;;;20.25;100.00
3102;BME280;1561;42.666;23.392;2023-08-30T01:11:25;94335.38;;;20.50;100.00
3102;BME280;1561;42.666;23.392;2023-08-30T01:13:56;94337.69;;;20.71;100.00
3102;BME280;1561;42.666;23.392;2023-08-30T01:16:29;94336.91;;;20.64;100.00
3102;BME280;1561;42.666;23.392;2023-08-30T01:18:59;94336.22;;;20.37;100.00
3102;BME280;1561;42.666;23.392;2023-08-30T01:21:37;94337.22;;;20.36;100.00
3102;BME280;1561;42.666;23.392;2023-08-30T01:24:07;94341.97;;;20.39;100.00
3102;BME280;1561;42.666;23.392;2023-08-30T01:26:44;94336.22;;;20.37;100.00
3102;BME280;1561;42.666;23.392;2023-08-30T01:29:19;94328.88;;;20.15;100.00
3102;BME280;1561;42.666;23.392;2023-08-30T01:31:47;94330.28;;;19.98;100.00
3102;BME280;1561;42.666;23.392;2023-08-30T01:34:15;94328.66;;;20.23;100.00
3102;BME280;1561;42.666;23.392;2023-08-30T01:36:43;94315.28;;;20.32;100.00
3102;BME280;1561;42.666;23.392;2023-08-30T01:39:11;94312.94;;;20.11;100.00
3102;BME280;1561;42.666;23.392;2023-08-30T01:41:39;94315.72;;;20.10;100.00
3102;BME280;1561;42.666;23.392;2023-08-30T01:44:07;94322.06;;;20.27;100.00
3102;BME280;1561;42.666;23.392;2023-08-30T01:46:37;94342.59;;;20.41;100.00
3102;BME280;1561;42.666;23.392;2023-08-30T01:49:06;94346.59;;;20.37;100.00
3102;BME280;1561;42.666;23.392;2023-08-30T01:51:35;94331.09;;;20.11;100.00
3102;BME280;1561;42.666;23.392;2023-08-30T01:54:03;94315.75;;;19.64;100.00
3102;BME280;1561;42.666;23.392;2023-08-30T01:56:31;94332.91;;;19.46;100.00
3102;BME280;1561;42.666;23.392;2023-08-30T01:58:58;94325.31;;;19.31;100.00
3102;BME280;1561;42.666;23.392;2023-08-30T02:01:25;94335.06;;;19.36;100.00
3102;BME280;1561;42.666;23.392;2023-08-30T02:03:54;94337.41;;;19.18;100.00
3102;BME280;1561;42.666;23.392;2023-08-30T02:06:23;94335.03;;;19.16;100.00
3102;BME280;1561;42.666;23.392;2023-08-30T02:08:55;94333.69;;;19.33;100.00
3102;BME280;1561;42.666;23.392;2023-08-30T02:11:23;94322.47;;;19.00;100.00
3102;BME280;1561;42.666;23.392;2023-08-30T02:13:53;94308.13;;;18.98;100.00
3102;BME280;1561;42.666;23.392;2023-08-30T02:16:22;94311.31;;;19.06;100.00
3102;BME280;1561;42.666;23.392;2023-08-30T02:18:50;94298.34;;;18.93;100.00
3102;BME280;1561;42.666;23.392;2023-08-30T02:21:19;94253.13;;;18.76;100.00
3102;BME280;1561;42.666;23.392;2023-08-30T02:23:49;94303.56;;;19.19;100.00
3102;BME280;1561;42.666;23.392;2023-08-30T02:26:18;94308.78;;;19.26;100.00
3102;BME280;1561;42.666;23.392;2023-08-30T02:28:46;94298.81;;;19.29;100.00
3102;BME280;1561;42.666;23.392;2023-08-30T02:31:12;94306.59;;;19.42;100.00
3102;BME280;1561;42.666;23.392;2023-08-30T02:33:40;94309.78;;;19.38;100.00
3102;BME280;1561;42.666;23.392;2023-08-30T02:36:06;94311.00;;;19.42;100.00
3102;BME280;1561;42.666;23.392;2023-08-30T02:38:35;94311.56;;;19.37;100.00
3102;BME280;1561;42.666;23.392;2023-08-30T02:41:04;94317.13;;;19.15;100.00
3102;BME280;1561;42.666;23.392;2023-08-30T02:43:32;94317.69;;;19.10;100.00
3102;BME280;1561;42.666;23.392;2023-08-30T02:45:58;94320.34;;;19.36;100.00
3102;BME280;1561;42.666;23.392;2023-08-30T02:48:26;94320.34;;;19.36;100.00
3102;BME280;1561;42.666;23.392;2023-08-30T02:50:53;94307.38;;;19.23;100.00
3102;BME280;1561;42.666;23.392;2023-08-30T02:53:21;94312.09;;;18.94;100.00
3102;BME280;1561;42.666;23.392;2023-08-30T02:55:51;94308.69;;;18.87;100.00
3102;BME280;1561;42.666;23.392;2023-08-30T02:58:22;94311.69;;;19.10;100.00
3102;BME280;1561;42.666;23.392;2023-08-30T03:00:49;94308.53;;;19.01;100.00
3102;BME280;1561;42.666;23.392;2023-08-30T03:03:16;94306.88;;;18.81;100.00
3102;BME280;1561;42.666;23.392;2023-08-30T03:05:43;94310.28;;;18.88;100.00
3102;BME280;1561;42.666;23.392;2023-08-30T03:08:10;94310.28;;;19.01;100.00
3102;BME280;1561;42.666;23.392;2023-08-30T03:10:38;94304.34;;;19.07;100.00
3102;BME280;1561;42.666;23.392;2023-08-30T03:13:07;94306.53;;;19.10;100.00
3102;BME280;1561;42.666;23.392;2023-08-30T03:15:34;94306.16;;;19.13;100.00
3102;BME280;1561;42.666;23.392;2023-08-30T03:18:02;94306.16;;;19.19;100.00
3102;BME280;1561;42.666;23.392;2023-08-30T03:20:29;94304.72;;;18.97;100.00
3102;BME280;1561;42.666;23.392;2023-08-30T03:22:57;94311.66;;;18.77;100.00
3102;BME280;1561;42.666;23.392;2023-08-30T03:25:24;94270.94;;;18.45;100.00
3102;BME280;1561;42.666;23.392;2023-08-30T03:28:11;94310.44;;;18.73;100.00
3102;BME280;1561;42.666;23.392;2023-08-30T03:30:40;94306.03;;;18.67;100.00
3102;BME280;1561;42.666;23.392;2023-08-30T03:33:10;94293.88;;;18.61;100.00
3102;BME280;1561;42.666;23.392;2023-08-30T03:35:37;94309.59;;;18.60;100.00
3102;BME280;1561;42.666;23.392;2023-08-30T03:38:04;94295.09;;;18.65;100.00
3102;BME280;1561;42.666;23.392;2023-08-30T03:40:34;94290.88;;;18.51;100.00
3102;BME280;1561;42.666;23.392;2023-08-30T03:43:00;94288.66;;;18.48;100.00
3102;BME280;1561;42.666;23.392;2023-08-30T03:45:34;94287.09;;;18.47;100.00
3102;BME280;1561;42.666;23.392;2023-08-30T03:48:01;94283.09;;;18.45;100.00
3102;BME280;1561;42.666;23.392;2023-08-30T03:50:28;94288.25;;;18.45;100.00
3102;BME280;1561;42.666;23.392;2023-08-30T03:52:55;94284.97;;;18.30;100.00
3102;BME280;1561;42.666;23.392;2023-08-30T03:55:22;94303.06;;;18.30;100.00
3102;BME280;1561;42.666;23.392;2023-08-30T03:57:49;94308.03;;;18.25;100.00
3102;BME280;1561;42.666;23.392;2023-08-30T04:00:16;94305.34;;;18.05;100.00
3102;BME280;1561;42.666;23.392;2023-08-30T04:02:45;94309.50;;;18.06;100.00
3102;BME280;1561;42.666;23.392;2023-08-30T04:05:14;94320.66;;;18.07;100.00
3102;BME280;1561;42.666;23.392;2023-08-30T04:07:42;94328.03;;;18.10;100.00
3102;BME280;1561;42.666;23.392;2023-08-30T04:10:09;94335.00;;;18.43;100.00
3102;BME280;1561;42.666;23.392;2023-08-30T04:12:36;94331.56;;;18.77;100.00
3102;BME280;1561;42.666;23.392;2023-08-30T04:15:03;94324.22;;;18.93;100.00
3102;BME280;1561;42.666;23.392;2023-08-30T04:17:30;94324.66;;;19.16;100.00
3102;BME280;1561;42.666;23.392;2023-08-30T04:19:58;94328.91;;;19.43;100.00
3102;BME280;1561;42.666;23.392;2023-08-30T04:22:25;94342.66;;;19.63;100.00
3102;BME280;1561;42.666;23.392;2023-08-30T04:24:52;94341.25;;;20.13;100.00
3102;BME280;1561;42.666;23.392;2023-08-30T04:27:22;94319.31;;;19.96;100.00
3102;BME280;1561;42.666;23.392;2023-08-30T04:29:52;94345.16;;;20.48;100.00
3102;BME280;1561;42.666;23.392;2023-08-30T04:32:20;94353.13;;;21.10;100.00
3102;BME280;1561;42.666;23.392;2023-08-30T04:34:47;94357.63;;;21.83;100.00
3102;BME280;1561;42.666;23.392;2023-08-30T04:37:16;94359.72;;;22.17;100.00
3102;BME280;1561;42.666;23.392;2023-08-30T04:39:47;94267.34;;;21.65;100.00
3102;BME280;1561;42.666;23.392;2023-08-30T04:42:14;94354.91;;;22.38;100.00
3102;BME280;1561;42.666;23.392;2023-08-30T04:44:44;94368.53;;;22.76;100.00
3102;BME280;1561;42.666;23.392;2023-08-30T04:47:11;94383.59;;;22.92;100.00
3102;BME280;1561;42.666;23.392;2023-08-30T04:49:37;94373.44;;;23.02;100.00
3102;BME280;1561;42.666;23.392;2023-08-30T04:52:05;94389.72;;;21.70;100.00
3102;BME280;1561;42.666;23.392;2023-08-30T04:54:34;94397.91;;;21.67;100.00
3102;BME280;1561;42.666;23.392;2023-08-30T04:57:03;94375.59;;;20.78;100.00
3102;BME280;1561;42.666;23.392;2023-08-30T04:59:30;94389.84;;;20.56;100.00
3102;BME280;1561;42.666;23.392;2023-08-30T05:01:57;94384.72;;;21.00;100.00
3102;BME280;1561;42.666;23.392;2023-08-30T05:04:24;94384.16;;;20.85;100.00
3102;BME280;1561;42.666;23.392;2023-08-30T05:06:51;94378.59;;;20.75;100.00
3102;BME280;1561;42.666;23.392;2023-08-30T05:09:21;94375.22;;;20.75;100.00
3102;BME280;1561;42.666;23.392;2023-08-30T05:11:53;94381.47;;;20.61;100.00
3102;BME280;1561;42.666;23.392;2023-08-30T05:14:21;94390.34;;;20.21;100.00
3102;BME280;1561;42.666;23.392;2023-08-30T05:16:50;94346.69;;;20.68;100.00
3102;BME280;1561;42.666;23.392;2023-08-30T05:19:17;94380.53;;;20.99;100.00
3102;BME280;1561;42.666;23.392;2023-08-30T05:21:43;94388.56;;;20.91;100.00
3102;BME280;1561;42.666;23.392;2023-08-30T05:24:10;94373.06;;;21.47;100.00
3102;BME280;1561;42.666;23.392;2023-08-30T05:26:37;94365.06;;;22.82;100.00
3102;BME280;1561;42.666;23.392;2023-08-30T05:29:06;94387.28;;;23.21;100.00
3102;BME280;1561;42.666;23.392;2023-08-30T05:31:33;94388.81;;;22.92;100.00
3102;BME280;1561;42.666;23.392;2023-08-30T05:34:01;94390.69;;;24.15;100.00
3102;BME280;1561;42.666;23.392;2023-08-30T05:36:28;94386.94;;;24.57;100.00
3102;BME280;1561;42.666;23.392;2023-08-30T05:38:55;94386.81;;;23.06;100.00
3102;BME280;1561;42.666;23.392;2023-08-30T05:41:24;94388.00;;;23.40;100.00
3102;BME280;1561;42.666;23.392;2023-08-30T05:43:51;94388.41;;;23.96;100.00
3102;BME280;1561;42.666;23.392;2023-08-30T05:46:19;94386.88;;;25.43;100.00
3102;BME280;1561;42.666;23.392;2023-08-30T05:48:46;94379.31;;;25.74;100.00
3102;BME280;1561;42.666;23.392;2023-08-30T05:51:13;94372.06;;;24.69;100.00
3102;BME280;1561;42.666;23.392;2023-08-30T05:53:40;94382.84;;;26.46;100.00
3102;BME280;1561;42.666;23.392;2023-08-30T05:56:06;94381.53;;;25.94;100.00
3102;BME280;1561;42.666;23.392;2023-08-30T05:58:34;94310.19;;;26.03;100.00
3102;BME280;1561;42.666;23.392;2023-08-30T06:01:03;94361.41;;;26.87;100.00
3102;BME280;1561;42.666;23.392;2023-08-30T06:03:33;94386.22;;;27.01;100.00
3102;BME280;1561;42.666;23.392;2023-08-30T06:05:59;94368.94;;;27.48;100.00
3102;BME280;1561;42.666;23.392;2023-08-30T06:08:29;94382.06;;;27.05;100.00
3102;BME280;1561;42.666;23.392;2023-08-30T06:10:56;94370.28;;;27.29;100.00
3102;BME280;1561;42.666;23.392;2023-08-30T06:13:23;94293.44;;;26.42;100.00
3102;BME280;1561;42.666;23.392;2023-08-30T06:15:55;94363.22;;;27.29;100.00
3102;BME280;1561;42.666;23.392;2023-08-30T06:18:22;94372.66;;;28.10;100.00
3102;BME280;1561;42.666;23.392;2023-08-30T06:20:52;94370.34;;;27.34;100.00
3102;BME280;1561;42.666;23.392;2023-08-30T06:23:19;94380.53;;;27.30;100.00
3102;BME280;1561;42.666;23.392;2023-08-30T06:25:53;94383.88;;;27.74;100.00
3102;BME280;1561;42.666;23.392;2023-08-30T06:28:22;94370.50;;;27.49;100.00
3102;BME280;1561;42.666;23.392;2023-08-30T06:30:49;94379.56;;;27.63;100.00
3102;BME280;1561;42.666;23.392;2023-08-30T06:33:15;94374.69;;;27.02;100.00
3102;BME280;1561;42.666;23.392;2023-08-30T06:35:42;94386.47;;;28.27;100.00
3102;BME280;1561;42.666;23.392;2023-08-30T06:38:13;94248.59;;;28.39;100.00
3102;BME280;1561;42.666;23.392;2023-08-30T06:40:43;94386.94;;;30.64;87.66
3102;BME280;1561;42.666;23.392;2023-08-30T06:43:10;94385.09;;;29.79;98.77
3102;BME280;1561;42.666;23.392;2023-08-30T06:45:41;94387.72;;;28.56;100.00
3102;BME280;1561;42.666;23.392;2023-08-30T06:48:07;94386.41;;;29.62;98.13
3102;BME280;1561;42.666;23.392;2023-08-30T06:50:36;94384.53;;;28.17;100.00
3102;BME280;1561;42.666;23.392;2023-08-30T06:53:03;94397.63;;;29.47;100.00
3102;BME280;1561;42.666;23.392;2023-08-30T06:55:31;94375.03;;;28.94;99.81
3102;BME280;1561;42.666;23.392;2023-08-30T06:57:59;94380.88;;;30.68;88.70
3102;BME280;1561;42.666;23.392;2023-08-30T07:00:26;94370.81;;;30.85;87.21
3102;BME280;1561;42.666;23.392;2023-08-30T07:02:55;94382.44;;;29.64;98.16
3102;BME280;1561;42.666;23.392;2023-08-30T07:05:23;94379.06;;;29.99;91.88
3102;BME280;1561;42.666;23.392;2023-08-30T07:07:50;94382.72;;;29.78;92.35
3102;BME280;1561;42.666;23.392;2023-08-30T07:10:18;94384.28;;;29.84;92.39
3102;BME280;1561;42.666;23.392;2023-08-30T07:12:46;94374.28;;;29.86;90.07
3102;BME280;1561;42.666;23.392;2023-08-30T07:15:14;94373.78;;;29.99;88.66
3102;BME280;1561;42.666;23.392;2023-08-30T07:17:43;94368.78;;;29.77;91.23
3102;BME280;1561;42.666;23.392;2023-08-30T07:20:10;94373.94;;;29.47;92.38
3102;BME280;1561;42.666;23.392;2023-08-30T07:22:38;94380.44;;;29.19;94.12
3102;BME280;1561;42.666;23.392;2023-08-30T07:25:06;94374.31;;;30.36;84.29
3102;BME280;1561;42.666;23.392;2023-08-30T07:27:34;94375.91;;;31.89;69.73
3102;BME280;1561;42.666;23.392;2023-08-30T07:30:02;94367.47;;;32.54;65.41
3102;BME280;1561;42.666;23.392;2023-08-30T07:32:30;94381.53;;;31.14;71.92
3102;BME280;1561;42.666;23.392;2023-08-30T07:34:57;94375.34;;;29.80;80.56
3102;BME280;1561;42.666;23.392;2023-08-30T07:37:26;94373.63;;;31.72;66.90
3102;BME280;1561;42.666;23.392;2023-08-30T07:39:53;94377.78;;;32.17;64.50
3102;BME280;1561;42.666;23.392;2023-08-30T07:42:24;94371.03;;;31.57;67.75
3102;BME280;1561;42.666;23.392;2023-08-30T07:44:51;94345.88;;;32.08;64.72
3102;BME280;1561;42.666;23.392;2023-08-30T07:47:20;94370.00;;;32.64;61.20
3102;BME280;1561;42.666;23.392;2023-08-30T07:49:47;94360.75;;;30.97;66.59
3102;BME280;1561;42.666;23.392;2023-08-30T07:52:14;94362.22;;;30.25;73.93
3102;BME280;1561;42.666;23.392;2023-08-30T07:54:42;94372.44;;;29.71;74.93
3102;BME280;1561;42.666;23.392;2023-08-30T07:57:09;94366.63;;;32.25;60.42
3102;BME280;1561;42.666;23.392;2023-08-30T07:59:38;94367.94;;;32.56;56.64
3102;BME280;1561;42.666;23.392;2023-08-30T08:02:07;94358.69;;;32.25;58.75
3102;BME280;1561;42.666;23.392;2023-08-30T08:04:35;94371.53;;;32.08;58.85
3102;BME280;1561;42.666;23.392;2023-08-30T08:07:04;94374.06;;;33.27;54.08
3102;BME280;1561;42.666;23.392;2023-08-30T08:09:31;94373.16;;;32.37;58.08
3102;BME280;1561;42.666;23.392;2023-08-30T08:12:00;94370.16;;;31.77;57.86
3102;BME280;1561;42.666;23.392;2023-08-30T08:14:27;94358.13;;;31.99;58.62
3102;BME280;1561;42.666;23.392;2023-08-30T08:16:57;94286.31;;;30.17;64.70
3102;BME280;1561;42.666;23.392;2023-08-30T08:19:25;94366.75;;;31.66;62.94
3102;BME280;1561;42.666;23.392;2023-08-30T08:21:54;94371.91;;;32.30;56.43
3102;BME280;1561;42.666;23.392;2023-08-30T08:24:21;94374.34;;;31.88;55.96
3102;BME280;1561;42.666;23.392;2023-08-30T08:26:55;94371.06;;;33.75;48.64
3102;BME280;1561;42.666;23.392;2023-08-30T08:29:22;94369.84;;;33.26;50.69
3102;BME280;1561;42.666;23.392;2023-08-30T08:31:52;94379.53;;;31.49;57.30
3102;BME280;1561;42.666;23.392;2023-08-30T08:34:20;94373.91;;;31.07;58.70
3102;BME280;1561;42.666;23.392;2023-08-30T08:36:47;94380.50;;;31.68;54.68
3102;BME280;1561;42.666;23.392;2023-08-30T08:39:17;94367.94;;;32.84;50.45
3102;BME280;1561;42.666;23.392;2023-08-30T08:41:44;94375.00;;;33.17;50.75
3102;BME280;1561;42.666;23.392;2023-08-30T08:44:15;94371.19;;;34.21;46.39
3102;BME280;1561;42.666;23.392;2023-08-30T08:46:47;94381.53;;;33.48;44.53
3102;BME280;1561;42.666;23.392;2023-08-30T08:49:16;94372.06;;;33.79;44.79
3102;BME280;1561;42.666;23.392;2023-08-30T08:51:44;94362.38;;;33.33;44.18
3102;BME280;1561;42.666;23.392;2023-08-30T08:54:12;94368.16;;;34.59;42.43
3102;BME280;1561;42.666;23.392;2023-08-30T08:56:42;94368.34;;;33.62;42.87
3102;BME280;1561;42.666;23.392;2023-08-30T08:59:10;94353.66;;;31.95;45.58
3102;BME280;1561;42.666;23.392;2023-08-30T09:01:38;94362.84;;;33.77;43.12
3102;BME280;1561;42.666;23.392;2023-08-30T09:04:06;94358.38;;;33.72;42.00
3102;BME280;1561;42.666;23.392;2023-08-30T09:06:34;94369.59;;;32.80;43.51
3102;BME280;1561;42.666;23.392;2023-08-30T09:09:03;94354.47;;;31.52;45.24
3102;BME280;1561;42.666;23.392;2023-08-30T09:11:30;94287.91;;;31.88;44.47
3102;BME280;1561;42.666;23.392;2023-08-30T09:13:59;94288.06;;;33.61;41.01
3102;BME280;1561;42.666;23.392;2023-08-30T09:16:27;94346.94;;;35.54;38.08
3102;BME280;1561;42.666;23.392;2023-08-30T09:18:58;94356.78;;;35.40;38.79
3102;BME280;1561;42.666;23.392;2023-08-30T09:21:30;94358.38;;;33.54;40.16
3102;BME280;1561;42.666;23.392;2023-08-30T09:23:59;94354.31;;;33.61;40.48
3102;BME280;1561;42.666;23.392;2023-08-30T09:26:26;94354.91;;;32.93;41.67
3102;BME280;1561;42.666;23.392;2023-08-30T09:28:55;94350.63;;;34.13;40.32
3102;BME280;1561;42.666;23.392;2023-08-30T09:31:25;94352.97;;;35.06;38.50
3102;BME280;1561;42.666;23.392;2023-08-30T09:33:57;94356.34;;;34.20;40.25
3102;BME280;1561;42.666;23.392;2023-08-30T09:36:33;94358.81;;;33.79;41.11
3102;BME280;1561;42.666;23.392;2023-08-30T09:39:03;94368.75;;;32.56;43.15
3102;BME280;1561;42.666;23.392;2023-08-30T09:41:30;94361.78;;;32.03;44.49
3102;BME280;1561;42.666;23.392;2023-08-30T09:43:58;94355.38;;;32.43;43.93
3102;BME280;1561;42.666;23.392;2023-08-30T09:46:28;94355.41;;;34.11;42.17
3102;BME280;1561;42.666;23.392;2023-08-30T09:48:56;94345.84;;;33.78;41.09
3102;BME280;1561;42.666;23.392;2023-08-30T09:51:24;94339.16;;;34.63;40.19
3102;BME280;1561;42.666;23.392;2023-08-30T09:53:54;94347.94;;;32.97;41.40
3102;BME280;1561;42.666;23.392;2023-08-30T09:56:25;94342.34;;;32.80;43.34
3102;BME280;1561;42.666;23.392;2023-08-30T09:58:54;94335.16;;;35.20;39.02
3102;BME280;1561;42.666;23.392;2023-08-30T10:01:23;94343.66;;;33.01;40.88
3102;BME280;1561;42.666;23.392;2023-08-30T10:03:59;94334.47;;;33.17;41.93
3102;BME280;1561;42.666;23.392;2023-08-30T10:06:29;94329.75;;;31.28;45.56
3102;BME280;1561;42.666;23.392;2023-08-30T10:08:56;94326.59;;;34.68;40.01
3102;BME280;1561;42.666;23.392;2023-08-30T10:11:23;94323.50;;;34.34;40.33
3102;BME280;1561;42.666;23.392;2023-08-30T10:13:51;94329.94;;;33.96;40.94
3102;BME280;1561;42.666;23.392;2023-08-30T10:16:19;94310.59;;;33.77;40.67
3102;BME280;1561;42.666;23.392;2023-08-30T10:18:54;94329.28;;;32.88;42.53
3102;BME280;1561;42.666;23.392;2023-08-30T10:21:22;94311.00;;;30.61;47.79
3102;BME280;1561;42.666;23.392;2023-08-30T10:23:51;94317.44;;;31.08;47.93
3102;BME280;1561;42.666;23.392;2023-08-30T10:26:22;94322.94;;;33.08;43.00
3102;BME280;1561;42.666;23.392;2023-08-30T10:28:51;94317.59;;;34.05;40.81
3102;BME280;1561;42.666;23.392;2023-08-30T10:31:19;94315.97;;;34.41;40.41
3102;BME280;1561;42.666;23.392;2023-08-30T10:33:52;94317.56;;;34.24;40.17
3102;BME280;1561;42.666;23.392;2023-08-30T10:36:23;94315.84;;;33.82;41.26
3102;BME280;1561;42.666;23.392;2023-08-30T10:38:52;94312.50;;;34.09;40.88
3102;BME280;1561;42.666;23.392;2023-08-30T10:41:24;94313.66;;;34.03;40.95
3102;BME280;1561;42.666;23.392;2023-08-30T10:43:52;94305.59;;;33.94;41.36
3102;BME280;1561;42.666;23.392;2023-08-30T10:46:29;94315.88;;;32.28;44.08
3102;BME280;1561;42.666;23.392;2023-08-30T10:49:08;94223.19;;;30.60;48.99
3102;BME280;1561;42.666;23.392;2023-08-30T10:51:36;94304.75;;;31.59;47.95
3102;BME280;1561;42.666;23.392;2023-08-30T10:54:10;94307.19;;;31.89;47.59
3102;BME280;1561;42.666;23.392;2023-08-30T10:56:46;94305.16;;;31.37;47.71
3102;BME280;1561;42.666;23.392;2023-08-30T10:59:17;94309.06;;;30.86;50.12
3102;BME280;1561;42.666;23.392;2023-08-30T11:01:46;94311.25;;;30.74;51.09
3102;BME280;1561;42.666;23.392;2023-08-30T11:04:16;94304.56;;;31.50;47.61
3102;BME280;1561;42.666;23.392;2023-08-30T11:06:44;94310.69;;;32.41;45.39
3102;BME280;1561;42.666;23.392;2023-08-30T11:09:30;94305.84;;;31.53;45.09
3102;BME280;1561;42.666;23.392;2023-08-30T11:12:04;94293.13;;;31.11;47.77
3102;BME280;1561;42.666;23.392;2023-08-30T11:14:32;94295.78;;;32.50;44.03
3102;BME280;1561;42.666;23.392;2023-08-30T11:16:59;94289.09;;;31.29;45.52
3102;BME280;1561;42.666;23.392;2023-08-30T11:19:29;94295.56;;;31.51;45.63
3102;BME280;1561;42.666;23.392;2023-08-30T11:21:56;94302.00;;;31.79;46.52
3102;BME280;1561;42.666;23.392;2023-08-30T11:24:23;94295.25;;;31.58;45.35
3102;BME280;1561;42.666;23.392;2023-08-30T11:26:55;94265.41;;;31.57;46.35
3102;BME280;1561;42.666;23.392;2023-08-30T11:29:27;94282.00;;;32.53;43.74
3102;BME280;1561;42.666;23.392;2023-08-30T11:31:54;94286.53;;;31.57;44.32
3102;BME280;1561;42.666;23.392;2023-08-30T11:34:21;94274.84;;;31.68;43.42
3102;BME280;1561;42.666;23.392;2023-08-30T11:36:51;94249.94;;;31.79;43.62
3102;BME280;1561;42.666;23.392;2023-08-30T11:39:19;94270.66;;;32.24;43.14
3102;BME280;1561;42.666;23.392;2023-08-30T11:41:50;94262.72;;;32.01;44.16
3102;BME280;1561;42.666;23.392;2023-08-30T11:44:18;94260.28;;;31.37;44.53
3102;BME280;1561;42.666;23.392;2023-08-30T11:46:47;94254.91;;;31.47;44.55
3102;BME280;1561;42.666;23.392;2023-08-30T11:49:15;94253.47;;;32.50;42.74
3102;BME280;1561;42.666;23.392;2023-08-30T11:51:42;94246.47;;;33.25;41.51
3102;BME280;1561;42.666;23.392;2023-08-30T11:54:14;94247.56;;;31.78;42.55
3102;BME280;1561;42.666;23.392;2023-08-30T11:56:43;94238.03;;;31.82;42.47
3102;BME280;1561;42.666;23.392;2023-08-30T11:59:18;94176.69;;;31.85;42.32
3102;BME280;1561;42.666;23.392;2023-08-30T12:01:46;94232.22;;;32.08;42.45
3102;BME280;1561;42.666;23.392;2023-08-30T12:04:14;94245.31;;;31.95;42.40
3102;BME280;1561;42.666;23.392;2023-08-30T12:06:44;94240.97;;;31.75;42.20
3102;BME280;1561;42.666;23.392;2023-08-30T12:09:21;94232.81;;;30.95;43.53
3102;BME280;1561;42.666;23.392;2023-08-30T12:11:48;94237.19;;;30.56;44.62
3102;BME280;1561;42.666;23.392;2023-08-30T12:14:16;94237.22;;;30.51;44.60
3102;BME280;1561;42.666;23.392;2023-08-30T12:16:43;94228.63;;;30.84;44.32
3102;BME280;1561;42.666;23.392;2023-08-30T12:19:12;94229.28;;;31.53;42.12
3102;BME280;1561;42.666;23.392;2023-08-30T12:21:40;94222.00;;;32.02;40.34
3102;BME280;1561;42.666;23.392;2023-08-30T12:24:07;94227.72;;;32.09;40.48
3102;BME280;1561;42.666;23.392;2023-08-30T12:26:37;94221.53;;;31.28;41.51
3102;BME280;1561;42.666;23.392;2023-08-30T12:29:04;94223.75;;;33.19;39.45
3102;BME280;1561;42.666;23.392;2023-08-30T12:31:32;94218.25;;;33.15;39.83
3102;BME280;1561;42.666;23.392;2023-08-30T12:33:59;94215.69;;;31.64;40.73
3102;BME280;1561;42.666;23.392;2023-08-30T12:36:26;94211.22;;;31.65;40.61
3102;BME280;1561;42.666;23.392;2023-08-30T12:38:53;94211.88;;;30.50;42.88
3102;BME280;1561;42.666;23.392;2023-08-30T12:41:20;94204.22;;;30.58;43.08
3102;BME280;1561;42.666;23.392;2023-08-30T12:43:50;94210.22;;;31.17;41.79
3102;BME280;1561;42.666;23.392;2023-08-30T12:46:18;94183.75;;;30.89;42.00
3102;BME280;1561;42.666;23.392;2023-08-30T12:48:45;94201.09;;;31.43;41.45
3102;BME280;1561;42.666;23.392;2023-08-30T12:51:12;94202.19;;;30.99;41.44
3102;BME280;1561;42.666;23.392;2023-08-30T12:53:41;94201.56;;;32.36;39.43
3102;BME280;1561;42.666;23.392;2023-08-30T12:56:09;94156.44;;;32.69;38.44
3102;BME280;1561;42.666;23.392;2023-08-30T12:58:38;94188.28;;;32.59;39.05
3102;BME280;1561;42.666;23.392;2023-08-30T13:01:06;94181.75;;;32.75;39.48
3102;BME280;1561;42.666;23.392;2023-08-30T13:03:33;94177.50;;;32.56;38.00
3102;BME280;1561;42.666;23.392;2023-08-30T13:06:00;94185.03;;;32.44;38.23
3102;BME280;1561;42.666;23.392;2023-08-30T13:08:27;94182.16;;;32.87;37.29
3102;BME280;1561;42.666;23.392;2023-08-30T13:10:56;94171.38;;;32.79;37.92
3102;BME280;1561;42.666;23.392;2023-08-30T13:13:22;94184.72;;;32.50;39.84